createdAt,value
2022-11-04T03:12:53.222Z,75.69
2022-11-04T03:15:26.094Z,75.46
2022-11-04T03:17:58.870Z,75.42
2022-11-04T03:20:28.688Z,75.62
2022-11-04T03:22:59.877Z,75.46
2022-11-04T03:25:31.069Z,75.40
2022-11-04T03:28:04.761Z,75.72
2022-11-04T03:30:40.331Z,75.52
2022-11-04T03:33:16.304Z,75.51
2022-11-04T03:35:43.219Z,75.33
2022-11-04T03:38:10.117Z,75.30
2022-11-04T03:40:37.149Z,75.27
2022-11-04T03:43:10.010Z,75.23
2022-11-04T03:45:37.215Z,75.20
2022-11-04T03:48:04.153Z,75.16
2022-11-04T03:50:33.879Z,75.15
2022-11-04T03:53:01.445Z,75.16
2022-11-04T03:55:42.682Z,75.26
2022-11-04T03:58:19.622Z,75.15
2022-11-04T04:00:49.246Z,75.24
2022-11-04T04:03:20.058Z,75.10
2022-11-04T04:05:53.782Z,75.15
2022-11-04T04:08:29.765Z,75.17
2022-11-04T04:11:06.544Z,75.22
2022-11-04T04:13:43.262Z,75.15
2022-11-04T04:16:17.275Z,75.29
2022-11-04T04:18:52.617Z,75.40
2022-11-04T04:21:25.887Z,75.32
2022-11-04T04:24:13.945Z,75.40
2022-11-04T04:26:59.833Z,75.47
2022-11-04T04:29:28.946Z,75.58
2022-11-04T04:31:58.100Z,75.43
2022-11-04T04:34:27.618Z,75.53
2022-11-04T04:37:00.211Z,75.53
2022-11-04T04:39:48.396Z,75.50
2022-11-04T04:42:32.671Z,75.45
2022-11-04T04:45:03.659Z,75.62
2022-11-04T04:47:35.952Z,75.46
2022-11-04T04:50:03.935Z,75.45
2022-11-04T04:52:33.831Z,75.15
2022-11-04T04:55:00.721Z,75.42
2022-11-04T04:57:27.686Z,75.22
2022-11-04T04:59:54.737Z,75.37
2022-11-04T05:02:21.824Z,75.27
2022-11-04T05:04:49.280Z,75.39
2022-11-04T05:07:16.295Z,75.28
2022-11-04T05:09:43.169Z,75.35
2022-11-04T05:12:11.077Z,75.39
2022-11-04T05:14:38.532Z,75.32
2022-11-04T05:17:05.551Z,75.28
2022-11-04T05:19:32.598Z,75.34
2022-11-04T05:21:59.544Z,75.41
2022-11-04T05:24:26.449Z,75.27
2022-11-04T05:26:53.488Z,75.23
2022-11-04T05:29:20.528Z,75.08
2022-11-04T05:31:47.870Z,75.27
2022-11-04T05:34:15.489Z,75.30
2022-11-04T05:36:42.388Z,75.43
2022-11-04T05:39:12.240Z,75.25
2022-11-04T05:41:39.890Z,75.18
2022-11-04T05:44:09.435Z,75.21
2022-11-04T05:46:36.359Z,75.23
2022-11-04T05:49:03.281Z,75.34
2022-11-04T05:51:31.139Z,75.44
2022-11-04T05:53:57.993Z,75.40
2022-11-04T05:56:24.857Z,75.37
2022-11-04T05:58:51.711Z,75.44
2022-11-04T06:01:29.027Z,75.38
2022-11-04T06:03:57.827Z,75.22
2022-11-04T06:06:26.210Z,75.15
2022-11-04T06:08:53.988Z,75.22
2022-11-04T06:11:21.649Z,75.13
2022-11-04T06:13:48.691Z,75.22
2022-11-04T06:16:15.614Z,75.27
2022-11-04T06:18:42.686Z,75.03
2022-11-04T06:21:24.876Z,74.97
2022-11-04T06:23:52.277Z,74.92
2022-11-04T06:26:22.637Z,74.65
2022-11-04T06:28:52.212Z,74.77
2022-11-04T06:31:20.537Z,74.67
2022-11-04T06:33:48.162Z,74.55
2022-11-04T06:36:16.924Z,74.37
2022-11-04T06:38:44.475Z,74.43
2022-11-04T06:41:14.434Z,74.40
2022-11-04T06:43:41.551Z,74.31
2022-11-04T06:46:24.536Z,74.29
2022-11-04T06:48:51.356Z,74.32
2022-11-04T06:51:18.768Z,74.09
2022-11-04T06:53:45.706Z,74.10
2022-11-04T06:56:12.953Z,73.90
2022-11-04T06:58:39.852Z,73.90
2022-11-04T07:01:13.501Z,73.70
2022-11-04T07:03:41.698Z,73.76
2022-11-04T07:06:12.519Z,73.66
2022-11-04T07:08:40.967Z,73.32
2022-11-04T07:11:08.566Z,73.40
2022-11-04T07:13:35.665Z,73.26
2022-11-04T07:16:05.163Z,73.36
2022-11-04T07:18:32.048Z,73.27
2022-11-04T07:21:00.238Z,73.24
2022-11-04T07:23:27.117Z,73.17
2022-11-04T07:25:55.337Z,73.11
2022-11-04T07:28:22.217Z,73.09
2022-11-04T07:30:49.055Z,73.08
2022-11-04T07:33:15.943Z,72.93
2022-11-04T07:35:43.319Z,72.82
2022-11-04T07:38:10.515Z,72.66
2022-11-04T07:40:39.423Z,72.54
2022-11-04T07:43:06.913Z,72.39
2022-11-04T07:45:37.633Z,72.38
2022-11-04T07:48:04.904Z,72.26
2022-11-04T07:50:31.839Z,72.14
2022-11-04T07:53:00.064Z,71.96
2022-11-04T07:55:27.034Z,71.79
2022-11-04T07:57:55.651Z,71.88
2022-11-04T08:00:23.070Z,71.79
2022-11-04T08:02:50.784Z,71.81
2022-11-04T08:05:18.192Z,71.78
2022-11-04T08:07:45.317Z,71.71
2022-11-04T08:10:13.112Z,71.64
2022-11-04T08:12:40.158Z,71.76
2022-11-04T08:15:08.820Z,71.80
2022-11-04T08:17:35.808Z,71.91
2022-11-04T08:20:02.900Z,71.79
2022-11-04T08:22:32.932Z,71.87
2022-11-04T08:25:00.142Z,72.06
2022-11-04T08:27:27.068Z,72.05
2022-11-04T08:29:54.147Z,72.04
2022-11-04T08:32:21.131Z,72.08
2022-11-04T08:34:49.071Z,71.91
2022-11-04T08:37:17.986Z,71.85
2022-11-04T08:39:45.197Z,71.62
2022-11-04T08:42:12.840Z,71.56
2022-11-04T08:44:40.572Z,71.71
2022-11-04T08:47:08.095Z,72.05
2022-11-04T08:49:38.466Z,71.66
2022-11-04T08:52:06.463Z,71.53
2022-11-04T08:54:33.487Z,71.60
2022-11-04T08:57:01.404Z,71.76
2022-11-04T08:59:28.382Z,71.62
2022-11-04T09:01:55.564Z,71.71
2022-11-04T09:04:22.774Z,71.59
2022-11-04T09:06:51.108Z,71.61
2022-11-04T09:09:19.580Z,71.51
2022-11-04T09:11:47.758Z,71.47
2022-11-04T09:14:15.289Z,71.33
2022-11-04T09:16:43.164Z,71.20
2022-11-04T09:19:10.608Z,71.12
2022-11-04T09:21:38.070Z,71.31
2022-11-04T09:24:05.237Z,71.11
2022-11-04T09:26:32.372Z,71.02
2022-11-04T09:29:00.536Z,70.97
2022-11-04T09:31:29.289Z,71.03
2022-11-04T09:33:56.980Z,71.10
2022-11-04T09:36:24.337Z,71.29
2022-11-04T09:38:51.826Z,71.26
2022-11-04T09:41:39.332Z,71.12
2022-11-04T09:44:10.924Z,70.65
2022-11-04T09:46:40.242Z,70.65
2022-11-04T09:49:10.230Z,70.46
2022-11-04T09:51:55.142Z,70.48
2022-11-04T09:54:26.071Z,70.10
2022-11-04T09:56:56.549Z,69.78
2022-11-04T09:59:30.173Z,69.32
2022-11-04T10:02:20.695Z,69.56
2022-11-04T10:05:02.523Z,69.31
2022-11-04T10:07:45.426Z,69.15
2022-11-04T10:10:22.962Z,68.92
2022-11-04T10:13:02.290Z,68.91
2022-11-04T10:15:48.069Z,68.77
2022-11-04T10:18:29.236Z,68.60
2022-11-04T10:21:06.561Z,67.79
2022-11-04T10:23:39.520Z,67.95
2022-11-04T10:26:16.731Z,67.25
2022-11-04T10:28:45.677Z,67.05
2022-11-04T10:31:16.591Z,66.76
2022-11-04T10:33:48.714Z,66.06
2022-11-04T10:36:17.986Z,65.74
2022-11-04T10:38:48.190Z,65.36
2022-11-04T10:41:27.648Z,64.94
2022-11-04T10:43:59.376Z,64.68
2022-11-04T10:46:40.076Z,64.66
2022-11-04T10:49:22.219Z,63.46
2022-11-04T10:51:49.257Z,62.68
2022-11-04T10:54:16.474Z,62.46
2022-11-04T10:56:48.753Z,62.27
2022-11-04T10:59:27.392Z,62.58
2022-11-04T11:01:55.787Z,61.50
2022-11-04T11:04:31.612Z,60.22
2022-11-04T11:07:00.883Z,59.64
2022-11-04T11:09:30.663Z,60.26
2022-11-04T11:12:01.021Z,60.81
2022-11-04T11:14:39.878Z,60.78
2022-11-04T11:17:24.972Z,60.49
2022-11-04T11:20:00.251Z,60.82
2022-11-04T11:22:40.822Z,61.09
2022-11-04T11:25:24.452Z,60.60
2022-11-04T11:27:53.762Z,59.03
2022-11-04T11:30:27.025Z,58.47
2022-11-04T11:32:57.527Z,58.47
2022-11-04T11:35:28.301Z,58.10
2022-11-04T11:37:57.656Z,58.32
2022-11-04T11:40:31.686Z,59.05
2022-11-04T11:42:59.974Z,59.60
2022-11-04T11:45:28.149Z,60.04
2022-11-04T11:47:56.412Z,59.72
2022-11-04T11:50:30.206Z,59.12
2022-11-04T11:53:15.367Z,59.25
2022-11-04T11:55:48.440Z,58.66
2022-11-04T12:01:24.091Z,56.95
2022-11-04T12:09:42.572Z,58.25
2022-11-04T12:12:19.900Z,57.74
2022-11-04T12:15:03.647Z,57.38
2022-11-04T12:17:43.320Z,57.86
2022-11-04T12:20:24.071Z,57.28
2022-11-04T12:22:59.936Z,57.74
2022-11-04T12:25:36.422Z,57.69
2022-11-04T12:28:11.599Z,57.88
2022-11-04T12:31:00.001Z,57.93
2022-11-04T12:33:35.550Z,58.13
2022-11-04T12:36:21.389Z,58.00
2022-11-04T12:39:03.367Z,57.41
2022-11-04T12:41:59.226Z,57.81
2022-11-04T12:44:33.461Z,57.69
2022-11-04T12:47:13.895Z,57.83
2022-11-04T12:50:04.670Z,58.18
2022-11-04T12:52:46.295Z,58.66
2022-11-04T12:55:32.499Z,58.95
2022-11-04T12:58:13.190Z,58.59
2022-11-04T13:00:43.048Z,58.50
2022-11-04T13:03:17.313Z,58.90
2022-11-04T13:05:50.314Z,58.77
2022-11-04T13:08:24.085Z,58.53
2022-11-04T13:10:57.362Z,59.07
2022-11-04T13:13:29.942Z,59.11
2022-11-04T13:15:59.706Z,59.21
2022-11-04T13:18:31.740Z,59.20
2022-11-04T13:21:04.259Z,58.91
2022-11-04T13:23:38.435Z,59.19
2022-11-04T13:26:08.385Z,58.54
2022-11-04T13:28:40.517Z,59.10
2022-11-04T13:31:13.434Z,59.14
2022-11-04T13:33:50.145Z,59.32
2022-11-04T13:36:29.644Z,59.07
2022-11-04T13:38:59.480Z,59.17
2022-11-04T13:41:40.052Z,59.24
2022-11-04T13:44:14.815Z,59.17
2022-11-04T13:46:48.409Z,58.81
2022-11-04T13:49:30.655Z,59.02
2022-11-04T13:52:10.562Z,58.73
2022-11-04T13:54:41.885Z,58.75
2022-11-04T13:57:13.541Z,58.65
2022-11-04T13:59:41.019Z,58.59
2022-11-04T14:02:27.684Z,58.55
2022-11-04T14:04:55.737Z,58.56
2022-11-04T14:08:02.116Z,58.70
2022-11-04T14:10:47.926Z,58.63
2022-11-04T14:13:46.331Z,58.76
2022-11-04T14:16:34.478Z,58.67
2022-11-04T14:19:55.997Z,58.91
2022-11-04T14:22:23.761Z,59.08
2022-11-04T14:24:57.952Z,58.95
2022-11-04T14:27:29.568Z,59.17
2022-11-04T14:29:57.103Z,59.27
2022-11-04T14:32:31.717Z,59.32
2022-11-04T14:35:05.552Z,59.51
2022-11-04T14:37:35.624Z,59.56
2022-11-04T14:40:05.603Z,59.74
2022-11-04T14:42:53.268Z,60.00
2022-11-04T14:45:25.433Z,60.15
2022-11-04T14:47:56.296Z,60.44
2022-11-04T14:50:27.689Z,60.58
2022-11-04T14:52:58.756Z,60.63
2022-11-04T14:55:28.124Z,60.78
2022-11-04T14:57:56.767Z,60.94
2022-11-04T15:00:30.986Z,60.97
2022-11-04T15:03:06.103Z,61.09
2022-11-04T15:05:36.411Z,61.29
2022-11-04T15:08:03.804Z,61.33
2022-11-04T15:10:31.320Z,61.45
2022-11-04T15:13:03.933Z,61.63
2022-11-04T15:15:38.062Z,61.79
2022-11-04T15:18:08.924Z,61.86
2022-11-04T15:20:41.267Z,61.93
2022-11-04T15:23:13.818Z,62.12
2022-11-04T15:25:47.399Z,62.25
2022-11-04T15:28:22.298Z,62.40
2022-11-04T15:31:01.171Z,62.57
2022-11-04T15:33:28.721Z,62.68
2022-11-04T15:35:57.700Z,62.86
2022-11-04T15:38:26.876Z,63.02
2022-11-04T15:40:54.290Z,63.23
2022-11-04T15:43:21.651Z,63.34
2022-11-04T15:45:56.253Z,63.44
2022-11-04T15:48:29.598Z,63.53
2022-11-04T15:51:16.017Z,63.64
2022-11-04T15:53:52.411Z,63.73
2022-11-04T15:56:22.263Z,63.95
2022-11-04T15:58:49.646Z,64.06
2022-11-04T16:01:19.400Z,64.39
2022-11-04T16:03:53.411Z,64.60
2022-11-04T16:06:33.725Z,64.80
2022-11-04T16:09:08.238Z,64.97
2022-11-04T16:11:35.357Z,65.25
2022-11-04T16:14:25.021Z,65.38
2022-11-04T16:16:53.780Z,65.45
2022-11-04T16:19:24.125Z,65.64
2022-11-04T16:21:59.628Z,65.61
2022-11-04T16:24:29.104Z,65.79
2022-11-04T16:26:58.426Z,65.87
2022-11-04T16:29:29.620Z,66.05
2022-11-04T16:32:16.470Z,66.16
2022-11-04T16:34:44.002Z,66.31
2022-11-04T16:37:10.968Z,66.39
2022-11-04T16:39:38.683Z,66.46
2022-11-04T16:42:05.964Z,66.58
2022-11-04T16:44:33.486Z,66.89
2022-11-04T16:47:01.028Z,66.84
2022-11-04T16:49:28.035Z,66.97
2022-11-04T16:51:57.433Z,67.10
2022-11-04T16:54:27.541Z,67.05
2022-11-04T16:56:54.929Z,66.98
2022-11-04T16:59:22.247Z,67.10
2022-11-04T17:01:49.603Z,67.04
2022-11-04T17:04:16.951Z,67.12
2022-11-04T17:06:46.302Z,67.26
2022-11-04T17:09:21.472Z,67.19
2022-11-04T17:11:48.574Z,67.29
2022-11-04T17:14:16.518Z,67.34
2022-11-04T17:16:43.474Z,67.33
2022-11-04T17:19:15.584Z,67.19
2022-11-04T17:21:42.728Z,67.23
2022-11-04T17:24:09.995Z,67.27
2022-11-04T17:26:37.436Z,67.39
2022-11-04T17:29:04.682Z,67.34
2022-11-04T17:31:31.672Z,67.32
2022-11-04T17:33:58.580Z,67.52
2022-11-04T17:36:26.891Z,67.60
2022-11-04T17:38:53.883Z,67.66
2022-11-04T17:41:38.537Z,67.72
2022-11-04T17:44:05.654Z,67.75
2022-11-04T17:46:40.082Z,67.74
2022-11-04T17:49:11.078Z,67.80
2022-11-04T17:51:39.302Z,67.87
2022-11-04T17:54:07.171Z,67.88
2022-11-04T17:56:34.180Z,67.87
2022-11-04T17:59:04.040Z,68.12
2022-11-04T18:01:31.834Z,68.11
2022-11-04T18:03:59.251Z,68.08
2022-11-04T18:06:27.110Z,68.26
2022-11-04T18:08:55.337Z,68.33
2022-11-04T18:11:41.435Z,68.41
2022-11-04T18:14:13.739Z,68.34
2022-11-04T18:16:44.421Z,68.46
2022-11-04T18:19:11.989Z,68.52
2022-11-04T18:21:39.030Z,68.51
2022-11-04T18:24:06.713Z,68.54
2022-11-04T18:26:33.739Z,68.46
2022-11-04T18:29:00.826Z,68.49
2022-11-04T18:31:30.777Z,68.42
2022-11-04T18:34:00.132Z,68.54
2022-11-04T18:36:27.131Z,68.57
2022-11-04T18:38:54.120Z,68.63
2022-11-04T18:41:21.541Z,68.69
2022-11-04T18:43:48.468Z,68.85
2022-11-04T18:46:17.155Z,68.77
2022-11-04T18:48:48.620Z,68.88
2022-11-04T18:51:16.295Z,68.85
2022-11-04T18:53:43.365Z,68.75
2022-11-04T18:56:15.206Z,68.79
2022-11-04T18:58:45.190Z,68.82
2022-11-04T19:01:18.142Z,68.74
2022-11-04T19:03:46.356Z,68.76
2022-11-04T19:06:17.626Z,68.79
2022-11-04T19:08:46.867Z,68.77
2022-11-04T19:11:17.484Z,68.86
2022-11-04T19:13:45.138Z,68.93
2022-11-04T19:16:15.153Z,68.87
2022-11-04T19:18:42.594Z,68.90
2022-11-04T19:21:12.734Z,68.85
2022-11-04T19:23:40.613Z,68.73
2022-11-04T19:26:13.863Z,68.76
2022-11-04T19:28:48.293Z,68.72
2022-11-04T19:31:18.799Z,68.72
2022-11-04T19:33:46.080Z,68.70
2022-11-04T19:36:15.127Z,68.68
2022-11-04T19:38:43.904Z,68.85
2022-11-04T19:41:33.532Z,68.64
2022-11-04T19:44:01.753Z,68.70
2022-11-04T19:46:29.099Z,68.75
2022-11-04T19:48:56.671Z,68.83
2022-11-04T19:51:26.641Z,68.78
2022-11-04T19:53:58.833Z,68.82
2022-11-04T19:56:26.084Z,68.83
2022-11-04T19:58:53.155Z,68.78
2022-11-04T20:01:22.078Z,68.82
2022-11-04T20:03:49.278Z,68.80
2022-11-04T20:06:18.692Z,68.82
2022-11-04T20:08:48.927Z,68.84
2022-11-04T20:11:17.457Z,68.91
2022-11-04T20:13:47.669Z,68.92
2022-11-04T20:16:23.635Z,68.96
2022-11-04T20:18:52.919Z,69.01
2022-11-04T20:21:22.085Z,69.09
2022-11-04T20:23:49.207Z,69.09
2022-11-04T20:26:22.974Z,69.08
2022-11-04T20:28:50.390Z,69.11
2022-11-04T20:31:21.232Z,69.09
2022-11-04T20:33:49.545Z,69.20
2022-11-04T20:36:18.491Z,69.19
2022-11-04T20:38:47.193Z,69.23
2022-11-04T20:41:18.771Z,69.36
2022-11-04T20:43:46.339Z,69.40
2022-11-04T20:46:15.508Z,69.29
2022-11-04T20:48:42.676Z,69.42
2022-11-04T20:51:12.004Z,69.44
2022-11-04T20:53:40.146Z,69.51
2022-11-04T20:56:09.611Z,69.58
2022-11-04T20:58:38.186Z,69.59
2022-11-04T21:01:07.136Z,69.54
2022-11-04T21:03:34.694Z,69.64
2022-11-04T21:06:02.012Z,69.63
2022-11-04T21:08:29.663Z,69.71
2022-11-04T21:10:57.672Z,69.74
2022-11-04T21:13:25.048Z,69.78
2022-11-04T21:15:56.092Z,69.86
2022-11-04T21:18:23.276Z,69.84
2022-11-04T21:20:51.318Z,69.90
2022-11-04T21:23:20.474Z,69.90
2022-11-04T21:25:49.788Z,69.88
2022-11-04T21:28:17.909Z,69.87
2022-11-04T21:30:47.311Z,69.89
2022-11-04T21:33:14.660Z,69.81
2022-11-04T21:35:42.991Z,69.93
2022-11-04T21:38:14.648Z,70.05
2022-11-04T21:40:42.112Z,70.01
2022-11-04T21:43:09.008Z,70.03
2022-11-04T21:45:36.549Z,70.05
2022-11-04T21:48:03.647Z,69.91
2022-11-04T21:50:31.402Z,69.87
2022-11-04T21:52:58.570Z,69.94
2022-11-04T21:55:25.409Z,69.87
2022-11-04T21:57:52.604Z,69.93
2022-11-04T22:00:19.871Z,69.99
2022-11-04T22:02:51.768Z,70.05
2022-11-04T22:05:19.694Z,70.11
2022-11-04T22:08:06.956Z,70.05
2022-11-04T22:10:37.107Z,70.11
2022-11-04T22:13:04.293Z,70.14
2022-11-04T22:15:50.644Z,70.15
2022-11-04T22:18:18.028Z,70.21
2022-11-04T22:20:44.916Z,70.27
2022-11-04T22:23:11.988Z,70.35
2022-11-04T22:25:39.197Z,70.42
2022-11-04T22:28:06.339Z,70.48
2022-11-04T22:30:33.334Z,70.39
2022-11-04T22:33:00.635Z,70.42
2022-11-04T22:35:28.032Z,70.35
2022-11-04T22:37:55.257Z,70.46
2022-11-04T22:40:22.377Z,70.46
2022-11-04T22:42:49.314Z,70.57
2022-11-04T22:45:16.947Z,70.59
2022-11-04T22:47:43.987Z,70.65
2022-11-04T22:50:11.290Z,70.67
2022-11-04T22:52:38.613Z,70.69
2022-11-04T22:55:05.841Z,70.67
2022-11-04T22:57:32.739Z,70.62
2022-11-04T22:59:59.602Z,70.72
2022-11-04T23:02:32.487Z,70.61
2022-11-04T23:05:02.130Z,70.65
2022-11-04T23:07:29.108Z,70.62
2022-11-04T23:10:13.700Z,70.70
2022-11-04T23:12:58.186Z,70.73
2022-11-04T23:15:42.856Z,70.86
2022-11-04T23:18:30.869Z,70.84
2022-11-04T23:21:11.668Z,70.83
2022-11-04T23:23:56.444Z,70.87
2022-11-04T23:26:27.649Z,70.82
2022-11-04T23:29:12.517Z,70.83
2022-11-04T23:31:39.579Z,70.85
2022-11-04T23:34:24.344Z,70.89
2022-11-04T23:37:09.226Z,70.95
2022-11-04T23:39:36.069Z,71.07
2022-11-04T23:42:17.955Z,71.12
2022-11-04T23:45:02.527Z,71.17
2022-11-04T23:47:47.305Z,71.18
2022-11-04T23:50:32.384Z,71.33
2022-11-04T23:53:17.452Z,71.32
2022-11-04T23:56:01.986Z,71.34
2022-11-04T23:58:46.710Z,71.40
